createdAt,value
2018-11-25T00:04:28.245Z,95860.2
2018-11-25T00:09:25.088Z,95856.5
2018-11-25T00:14:21.908Z,95848.4
2018-11-25T00:19:18.937Z,95839.4
2018-11-25T00:24:15.656Z,95864.1
2018-11-25T00:29:12.700Z,95856.4
2018-11-25T00:34:09.446Z,95847.8
2018-11-25T00:39:05.562Z,95812.1
2018-11-25T00:44:02.509Z,95810.8
2018-11-25T00:48:59.193Z,95800.8
2018-11-25T00:53:56.259Z,95794
2018-11-25T00:58:52.971Z,95800.5
2018-11-25T01:03:49.741Z,95792.5
2018-11-25T01:08:46.511Z,95780.8
2018-11-25T01:13:43.408Z,95790.3
2018-11-25T01:18:40.348Z,95788.5
2018-11-25T01:23:37.476Z,95773.4
2018-11-25T01:28:34.063Z,95764.1
2018-11-25T01:33:30.922Z,95772.4
2018-11-25T01:38:27.541Z,95772
2018-11-25T01:43:24.408Z,95764.5
2018-11-25T01:48:21.299Z,95842.5
2018-11-25T01:53:18.510Z,95833.5
2018-11-25T01:58:15.462Z,95828.8
2018-11-25T02:03:12.170Z,95826.7
2018-11-25T02:08:08.918Z,95819.9
2018-11-25T02:13:05.696Z,95811.7
2018-11-25T02:18:02.670Z,95804.2
2018-11-25T02:23:02.125Z,95780.6
2018-11-25T02:27:58.955Z,95784.3
2018-11-25T02:32:55.717Z,95784.5
2018-11-25T02:37:52.441Z,95739.6
2018-11-25T02:42:49.216Z,95793.8
2018-11-25T02:47:46.052Z,95806.7
2018-11-25T02:52:43.120Z,95770
2018-11-25T02:57:39.970Z,95781.6
2018-11-25T03:02:36.650Z,95779.4
2018-11-25T03:07:33.697Z,95772.5
2018-11-25T03:12:30.513Z,95776.2
2018-11-25T03:17:27.520Z,95768.3
2018-11-25T03:22:24.330Z,95758.9
2018-11-25T03:27:21.099Z,95742
2018-11-25T03:32:17.897Z,95732.1
2018-11-25T03:37:14.612Z,95733.7
2018-11-25T03:42:11.323Z,95742.2
2018-11-25T03:47:08.345Z,95733.5
2018-11-25T03:52:05.367Z,95718
2018-11-25T03:57:02.313Z,95721.8
2018-11-25T04:01:59.284Z,95743.2
2018-11-25T04:06:56.422Z,95765.5
2018-11-25T04:11:53.124Z,95746.6
2018-11-25T04:16:50.013Z,95734.2
2018-11-25T04:21:47.196Z,95736.7
2018-11-25T04:26:43.757Z,95681.8
2018-11-25T04:31:40.480Z,95666.2
2018-11-25T04:36:37.243Z,95725.5
2018-11-25T04:41:33.988Z,95727.7
2018-11-25T04:46:30.878Z,95732
2018-11-25T04:51:27.933Z,95725.2
2018-11-25T04:56:24.980Z,95726.4
2018-11-25T05:01:21.859Z,95717.2
2018-11-25T05:06:18.821Z,95633
2018-11-25T05:11:15.501Z,95716.5
2018-11-25T05:16:12.118Z,95679
2018-11-25T05:21:08.834Z,95654
2018-11-25T05:26:05.979Z,95687.5
2018-11-25T05:31:02.724Z,95703.3
2018-11-25T05:35:59.638Z,95721.9
2018-11-25T05:40:56.441Z,95715.8
2018-11-25T05:45:53.309Z,95639.6
2018-11-25T05:50:50.129Z,95712.9
2018-11-25T05:55:47.027Z,95724.3
2018-11-25T06:00:43.987Z,95713.3
2018-11-25T06:05:41.037Z,95703.8
2018-11-25T06:10:37.907Z,95706.2
2018-11-25T06:15:34.646Z,95614.4
2018-11-25T06:20:31.572Z,95713.3
2018-11-25T06:25:28.236Z,95639.9
2018-11-25T06:30:25.070Z,95716.5
2018-11-25T06:35:21.890Z,95714.2
2018-11-25T06:40:18.807Z,95618.6
2018-11-25T06:45:15.541Z,95613.2
2018-11-25T06:50:12.607Z,95599.5
2018-11-25T06:55:09.533Z,95604.7
2018-11-25T07:00:06.590Z,95602.5
2018-11-25T07:05:03.261Z,95608.9
2018-11-25T07:10:00.108Z,95628.5
2018-11-25T07:14:56.901Z,95621
2018-11-25T07:19:53.650Z,95703.9
2018-11-25T07:24:50.654Z,95617.5
2018-11-25T07:29:47.518Z,95618.8
2018-11-25T07:34:43.843Z,95614
2018-11-25T07:39:40.748Z,95612.6
2018-11-25T07:44:37.413Z,95615.9
2018-11-25T07:49:34.371Z,95515.6
2018-11-25T07:54:31.193Z,95624.9
2018-11-25T07:59:27.970Z,95689.4
2018-11-25T08:04:24.874Z,95604.2
2018-11-25T08:09:21.743Z,95590.3
2018-11-25T08:14:18.676Z,95613.1
2018-11-25T08:19:15.868Z,95684.2
2018-11-25T08:24:13.310Z,95687.4
2018-11-25T08:29:10.056Z,95599.2
2018-11-25T08:34:06.856Z,95619.7
2018-11-25T08:39:03.764Z,95580.5
2018-11-25T08:44:00.743Z,95576.9
2018-11-25T08:48:57.749Z,95570.2
2018-11-25T08:53:54.780Z,95617.5
2018-11-25T08:58:51.133Z,95557.7
2018-11-25T09:03:48.128Z,95560.5
2018-11-25T09:08:44.884Z,95627.2
2018-11-25T09:13:41.665Z,95626
2018-11-25T09:18:38.474Z,95605.3
2018-11-25T09:23:35.232Z,95599.6
2018-11-25T09:28:31.909Z,95590.9
2018-11-25T09:33:28.753Z,95544.8
2018-11-25T09:38:25.613Z,95579.5
2018-11-25T09:43:22.465Z,95566.4
2018-11-25T09:48:19.363Z,95561.3
2018-11-25T09:53:16.576Z,95554.4
2018-11-25T09:58:13.348Z,95547.8
2018-11-25T10:03:10.262Z,95545
2018-11-25T10:08:07.249Z,95539.4
2018-11-25T10:13:03.952Z,95549.3
2018-11-25T10:18:00.533Z,95535.5
2018-11-25T10:22:57.578Z,95528.9
2018-11-25T10:27:54.418Z,95518.1
2018-11-25T10:32:51.577Z,95507.3
2018-11-25T10:37:48.200Z,95507
2018-11-25T10:42:44.915Z,95498.5
2018-11-25T10:47:41.784Z,95491.5
2018-11-25T10:52:38.584Z,95483.6
2018-11-25T10:57:35.465Z,95484.7
2018-11-25T11:02:32.094Z,95474.6
2018-11-25T11:07:28.848Z,95470.3
2018-11-25T11:12:25.460Z,95468
2018-11-25T11:17:22.615Z,95463.3
2018-11-25T11:22:18.930Z,95462.1
2018-11-25T11:27:16.412Z,95382.6
2018-11-25T11:32:13.174Z,95460.6
2018-11-25T11:37:10.168Z,95404.8
2018-11-25T11:42:06.663Z,95425.3
2018-11-25T11:47:03.595Z,95422.7
2018-11-25T11:52:01.081Z,95323.8
2018-11-25T11:56:57.913Z,95401.7
2018-11-25T12:01:54.818Z,95394.5
2018-11-25T12:06:51.666Z,95383.2
2018-11-25T12:11:48.526Z,95379
2018-11-25T12:16:45.574Z,95361.2
2018-11-25T12:21:47.238Z,95279
2018-11-25T12:26:42.862Z,95343.6
2018-11-25T12:31:41.305Z,95267.2
2018-11-25T12:36:37.734Z,95335.5
2018-11-25T12:41:35.427Z,95211.1
2018-11-25T12:46:31.558Z,95297.1
2018-11-25T12:51:28.765Z,95298.1
2018-11-25T12:56:25.826Z,95305.1
2018-11-25T13:01:22.712Z,95293.6
2018-11-25T13:06:19.643Z,95287.6
2018-11-25T13:11:16.715Z,95286.4
2018-11-25T13:16:13.901Z,95202.7
2018-11-25T13:21:10.872Z,95275.7
2018-11-25T13:26:07.630Z,95284.1
2018-11-25T13:31:04.762Z,95266.6
2018-11-25T13:36:01.312Z,95256.4
2018-11-25T13:40:58.344Z,95190.1
2018-11-25T13:45:55.247Z,95176.9
2018-11-25T13:50:52.289Z,95253.8
2018-11-25T13:55:49.093Z,95252.5
2018-11-25T14:00:46.155Z,95242.9
2018-11-25T14:05:42.729Z,95130.2
2018-11-25T14:10:39.523Z,95221
2018-11-25T14:15:36.314Z,95236.1
2018-11-25T14:20:33.262Z,95242.6
2018-11-25T14:25:30.283Z,95224.8
2018-11-25T14:30:27.118Z,95223.2
2018-11-25T14:35:24.078Z,95189.1
2018-11-25T14:40:21.107Z,95219.9
2018-11-25T14:45:17.841Z,95141.5
2018-11-25T14:50:14.873Z,95212.5
2018-11-25T14:55:11.773Z,95207.4
2018-11-25T15:00:08.885Z,95208.6
2018-11-25T15:05:05.852Z,95210.8
2018-11-25T15:10:02.712Z,95204.2
2018-11-25T15:14:59.839Z,95200.3
2018-11-25T15:19:56.918Z,95196.8
2018-11-25T15:24:53.551Z,95196.6
2018-11-25T15:29:50.452Z,95198.4
2018-11-25T15:34:47.144Z,95202.2
2018-11-25T15:39:44.158Z,95205.8
2018-11-25T15:44:41.079Z,95203.2
2018-11-25T15:49:37.889Z,95194.8
2018-11-25T15:54:35.101Z,95198.4
2018-11-25T15:59:31.618Z,95198
2018-11-25T16:04:28.585Z,95185
2018-11-25T16:09:25.499Z,95170.4
2018-11-25T16:14:22.253Z,95178.8
2018-11-25T16:19:18.957Z,95176.7
2018-11-25T16:24:15.901Z,95173.5
2018-11-25T16:29:12.941Z,95178.7
2018-11-25T16:34:09.498Z,95179.1
2018-11-25T16:39:06.213Z,95159.2
2018-11-25T16:44:03.019Z,95156.7
2018-11-25T16:49:00.077Z,95150.4
2018-11-25T16:53:57.195Z,95165.1
2018-11-25T16:58:54.121Z,95152.5
2018-11-25T17:03:50.974Z,95146.8
2018-11-25T17:08:47.894Z,95136.3
2018-11-25T17:13:44.691Z,95137.3
2018-11-25T17:18:41.737Z,95136.3
2018-11-25T17:23:38.668Z,95124.3
2018-11-25T17:28:35.713Z,95131.4
2018-11-25T17:33:32.395Z,95142.5
2018-11-25T17:38:29.220Z,95134.6
2018-11-25T17:43:26.083Z,95125.6
2018-11-25T17:48:39.866Z,95111
2018-11-25T17:53:30.978Z,95107.5
2018-11-25T17:58:27.475Z,95112.6
2018-11-25T18:03:24.401Z,95097.5
2018-11-25T18:08:21.481Z,95089.9
2018-11-25T18:13:18.256Z,95068.4
2018-11-25T18:18:15.024Z,95068.4
2018-11-25T18:23:12.077Z,95073.1
2018-11-25T18:28:08.477Z,95078.8
2018-11-25T18:33:05.376Z,95081.7
2018-11-25T18:38:02.170Z,95077
2018-11-25T18:42:59.053Z,95076.3
2018-11-25T18:47:55.975Z,94967.4
2018-11-25T18:52:52.820Z,95056.4
2018-11-25T18:57:49.535Z,95041.6
2018-11-25T19:02:46.621Z,95043.6
2018-11-25T19:07:43.673Z,94964.1
2018-11-25T19:12:44.140Z,95044.6
2018-11-25T19:17:37.387Z,94961.4
2018-11-25T19:22:41.086Z,95033.2
2018-11-25T19:27:35.276Z,95018.7
2018-11-25T19:32:41.767Z,95010.9
2018-11-25T19:37:43.524Z,95018.2
2018-11-25T19:42:37.185Z,95012.5
2018-11-25T19:47:33.775Z,95010.6
2018-11-25T19:52:34.713Z,95018.3
2018-11-25T19:57:29.708Z,95013.2
2018-11-25T20:02:26.998Z,94996.2
2018-11-25T20:07:26.850Z,94997
2018-11-25T20:12:34.717Z,94990.9
2018-11-25T20:17:44.135Z,94972.3
2018-11-25T20:22:37.542Z,94968.8
2018-11-25T20:27:38.593Z,94980.5
2018-11-25T20:32:40.489Z,94956.7
2018-11-25T20:37:37.597Z,94967
2018-11-25T20:42:43.927Z,94964.3
2018-11-25T20:47:38.178Z,94956.9
2018-11-25T20:52:36.410Z,94961.3
2018-11-25T20:57:40.671Z,94943.3
2018-11-25T21:02:37.144Z,94943
2018-11-25T21:07:33.601Z,94931
2018-11-25T21:12:34.180Z,94927.2
2018-11-25T21:17:35.992Z,94920.9
2018-11-25T21:22:42.377Z,94843.5
2018-11-25T21:27:35.128Z,94842.4
2018-11-25T21:32:31.208Z,94923.2
2018-11-25T21:37:29.128Z,94930
2018-11-25T21:42:29.579Z,94910.3
2018-11-25T21:47:35.893Z,94913.4
2018-11-25T21:52:35.292Z,94926.4
2018-11-25T21:57:34.774Z,94928.7
2018-11-25T22:02:43.130Z,94933.9
2018-11-25T22:07:46.164Z,94922.6
2018-11-25T22:12:45.446Z,94899.6
2018-11-25T22:17:50.802Z,94910
2018-11-25T22:22:50.665Z,94928.4
2018-11-25T22:27:53.398Z,94909.6
2018-11-25T22:33:01.949Z,94898.9
2018-11-25T22:38:06.451Z,94890.5
2018-11-25T22:43:09.822Z,94873.8
2018-11-25T22:48:14.148Z,94858.1
2018-11-25T22:53:16.022Z,94857.2
2018-11-25T22:58:09.882Z,94878.9
2018-11-25T23:03:19.929Z,94866
2018-11-25T23:08:22.356Z,94850.7
2018-11-25T23:13:23.493Z,94836.7
2018-11-25T23:18:31.032Z,94853.7
2018-11-25T23:23:31.459Z,94871
2018-11-25T23:28:44.526Z,94852.1
2018-11-25T23:33:44.757Z,94837.7
2018-11-25T23:38:49.544Z,94831.7
2018-11-25T23:43:53.254Z,94808.2
2018-11-25T23:49:06.340Z,94794.9
2018-11-25T23:53:55.936Z,94784.3
2018-11-25T23:58:58.850Z,94785.9
